sensor_id;sensor_type;location;lat;lon;timestamp;pressure;altitude;pressure_sealevel;temperature;humidity
73864;BME280;62200;52.062;5.292;2022-08-21T00:00:48;101760.13;;;13.11;88.76
73864;BME280;62200;52.062;5.292;2022-08-21T00:03:14;101761.88;;;13.12;88.96
73864;BME280;62200;52.062;5.292;2022-08-21T00:05:44;101765.09;;;13.03;88.54
73864;BME280;62200;52.062;5.292;2022-08-21T00:08:10;101760.84;;;12.99;88.81
73864;BME280;62200;52.062;5.292;2022-08-21T00:10:35;101759.69;;;12.89;89.45
73864;BME280;62200;52.062;5.292;2022-08-21T00:13:02;101759.66;;;12.75;89.92
73864;BME280;62200;52.062;5.292;2022-08-21T00:15:34;101760.44;;;12.77;90.03
73864;BME280;62200;52.062;5.292;2022-08-21T00:18:00;101762.69;;;12.69;90.11
73864;BME280;62200;52.062;5.292;2022-08-21T00:20:26;101762.19;;;12.62;89.83
73864;BME280;62200;52.062;5.292;2022-08-21T00:22:52;101757.13;;;12.58;90.07
73864;BME280;62200;52.062;5.292;2022-08-21T00:25:19;101754.75;;;12.53;90.61
73864;BME280;62200;52.062;5.292;2022-08-21T00:27:45;101756.88;;;12.47;90.66
73864;BME280;62200;52.062;5.292;2022-08-21T00:30:13;101750.38;;;12.37;91.18
73864;BME280;62200;52.062;5.292;2022-08-21T00:32:39;101752.63;;;12.29;91.43
73864;BME280;62200;52.062;5.292;2022-08-21T00:35:08;101740.78;;;12.34;90.44
73864;BME280;62200;52.062;5.292;2022-08-21T00:37:33;101738.50;;;12.42;90.81
73864;BME280;62200;52.062;5.292;2022-08-21T00:39:59;101751.66;;;12.45;91.29
73864;BME280;62200;52.062;5.292;2022-08-21T00:42:24;101743.56;;;12.47;90.90
73864;BME280;62200;52.062;5.292;2022-08-21T00:44:50;101745.88;;;12.53;90.56
73864;BME280;62200;52.062;5.292;2022-08-21T00:47:17;101749.41;;;12.53;90.54
73864;BME280;62200;52.062;5.292;2022-08-21T00:49:43;101754.06;;;12.50;91.07
73864;BME280;62200;52.062;5.292;2022-08-21T00:52:12;101748.63;;;12.51;90.50
73864;BME280;62200;52.062;5.292;2022-08-21T00:54:40;101748.53;;;12.53;89.99
73864;BME280;62200;52.062;5.292;2022-08-21T00:57:21;101750.25;;;12.54;90.12
73864;BME280;62200;52.062;5.292;2022-08-21T00:59:49;101743.31;;;12.51;90.16
73864;BME280;62200;52.062;5.292;2022-08-21T01:02:17;101746.66;;;12.55;90.18
73864;BME280;62200;52.062;5.292;2022-08-21T01:04:43;101747.50;;;12.55;89.97
73864;BME280;62200;52.062;5.292;2022-08-21T01:07:08;101748.53;;;12.53;89.90
73864;BME280;62200;52.062;5.292;2022-08-21T01:09:35;101742.72;;;12.46;90.37
73864;BME280;62200;52.062;5.292;2022-08-21T01:12:01;101742.03;;;12.43;89.88
73864;BME280;62200;52.062;5.292;2022-08-21T01:14:26;101744.03;;;12.39;90.94
73864;BME280;62200;52.062;5.292;2022-08-21T01:16:54;101739.56;;;12.40;90.81
73864;BME280;62200;52.062;5.292;2022-08-21T01:19:21;101734.22;;;12.40;90.65
73864;BME280;62200;52.062;5.292;2022-08-21T01:21:47;101744.22;;;12.36;90.27
73864;BME280;62200;52.062;5.292;2022-08-21T01:24:13;101742.47;;;12.35;90.23
73864;BME280;62200;52.062;5.292;2022-08-21T01:26:39;101740.00;;;12.32;90.34
73864;BME280;62200;52.062;5.292;2022-08-21T01:29:23;101748.94;;;12.31;90.36
73864;BME280;62200;52.062;5.292;2022-08-21T01:31:51;101747.50;;;12.26;89.98
73864;BME280;62200;52.062;5.292;2022-08-21T01:34:17;101748.41;;;12.25;90.82
73864;BME280;62200;52.062;5.292;2022-08-21T01:36:45;101745.94;;;12.22;90.99
73864;BME280;62200;52.062;5.292;2022-08-21T01:39:11;101743.78;;;12.28;90.80
73864;BME280;62200;52.062;5.292;2022-08-21T01:41:37;101743.88;;;12.27;90.41
73864;BME280;62200;52.062;5.292;2022-08-21T01:44:02;101742.94;;;12.28;90.66
73864;BME280;62200;52.062;5.292;2022-08-21T01:46:28;101740.00;;;12.32;90.60
73864;BME280;62200;52.062;5.292;2022-08-21T01:48:53;101731.31;;;12.29;90.55
73864;BME280;62200;52.062;5.292;2022-08-21T01:51:18;101741.38;;;12.24;90.72
73864;BME280;62200;52.062;5.292;2022-08-21T01:53:44;101736.16;;;12.22;90.55
73864;BME280;62200;52.062;5.292;2022-08-21T01:56:12;101733.56;;;12.21;90.73
73864;BME280;62200;52.062;5.292;2022-08-21T01:58:39;101732.78;;;12.19;91.01
73864;BME280;62200;52.062;5.292;2022-08-21T02:01:04;101730.47;;;12.13;91.43
73864;BME280;62200;52.062;5.292;2022-08-21T02:03:30;101728.59;;;12.15;91.21
73864;BME280;62200;52.062;5.292;2022-08-21T02:05:56;101724.31;;;12.12;91.19
73864;BME280;62200;52.062;5.292;2022-08-21T02:08:22;101733.22;;;12.11;90.91
73864;BME280;62200;52.062;5.292;2022-08-21T02:10:49;101727.81;;;12.13;90.81
73864;BME280;62200;52.062;5.292;2022-08-21T02:13:15;101726.88;;;12.14;90.97
73864;BME280;62200;52.062;5.292;2022-08-21T02:15:40;101731.34;;;12.13;90.72
73864;BME280;62200;52.062;5.292;2022-08-21T02:18:06;101729.97;;;12.06;90.86
73864;BME280;62200;52.062;5.292;2022-08-21T02:20:45;101722.94;;;12.05;90.84
73864;BME280;62200;52.062;5.292;2022-08-21T02:23:11;101723.28;;;11.99;90.90
73864;BME280;62200;52.062;5.292;2022-08-21T02:25:37;101718.72;;;12.01;91.56
73864;BME280;62200;52.062;5.292;2022-08-21T02:28:06;101710.81;;;12.00;91.39
73864;BME280;62200;52.062;5.292;2022-08-21T02:30:35;101715.38;;;11.98;90.99
73864;BME280;62200;52.062;5.292;2022-08-21T02:33:03;101717.16;;;11.97;91.93
73864;BME280;62200;52.062;5.292;2022-08-21T02:35:30;101708.34;;;11.97;91.47
73864;BME280;62200;52.062;5.292;2022-08-21T02:37:59;101711.94;;;11.96;91.38
73864;BME280;62200;52.062;5.292;2022-08-21T02:40:30;101709.44;;;11.93;91.47
73864;BME280;62200;52.062;5.292;2022-08-21T02:42:56;101701.53;;;11.91;91.44
73864;BME280;62200;52.062;5.292;2022-08-21T02:45:22;101699.16;;;11.87;91.61
73864;BME280;62200;52.062;5.292;2022-08-21T02:47:53;101702.66;;;11.87;92.11
73864;BME280;62200;52.062;5.292;2022-08-21T02:50:22;101701.97;;;11.84;92.00
73864;BME280;62200;52.062;5.292;2022-08-21T02:52:48;101698.53;;;11.82;92.14
73864;BME280;62200;52.062;5.292;2022-08-21T02:55:14;101703.00;;;11.81;92.59
73864;BME280;62200;52.062;5.292;2022-08-21T02:57:40;101696.72;;;11.82;91.91
73864;BME280;62200;52.062;5.292;2022-08-21T03:00:06;101698.72;;;11.79;91.26
73864;BME280;62200;52.062;5.292;2022-08-21T03:02:33;101694.84;;;11.84;91.59
73864;BME280;62200;52.062;5.292;2022-08-21T03:04:59;101691.16;;;11.87;90.93
73864;BME280;62200;52.062;5.292;2022-08-21T03:07:25;101689.41;;;11.86;91.18
73864;BME280;62200;52.062;5.292;2022-08-21T03:09:51;101692.38;;;11.81;91.70
73864;BME280;62200;52.062;5.292;2022-08-21T03:12:17;101681.84;;;11.78;91.69
73864;BME280;62200;52.062;5.292;2022-08-21T03:14:42;101681.25;;;11.73;91.96
73864;BME280;62200;52.062;5.292;2022-08-21T03:17:07;101691.16;;;11.71;91.82
73864;BME280;62200;52.062;5.292;2022-08-21T03:19:33;101685.16;;;11.67;91.99
73864;BME280;62200;52.062;5.292;2022-08-21T03:21:58;101690.63;;;11.64;92.00
73864;BME280;62200;52.062;5.292;2022-08-21T03:24:23;101686.31;;;11.62;92.23
73864;BME280;62200;52.062;5.292;2022-08-21T03:26:49;101681.88;;;11.62;92.19
73864;BME280;62200;52.062;5.292;2022-08-21T03:29:14;101682.50;;;11.67;92.21
73864;BME280;62200;52.062;5.292;2022-08-21T03:31:40;101688.91;;;11.63;92.37
73864;BME280;62200;52.062;5.292;2022-08-21T03:34:05;101683.41;;;11.66;92.24
73864;BME280;62200;52.062;5.292;2022-08-21T03:36:31;101686.16;;;11.65;92.11
73864;BME280;62200;52.062;5.292;2022-08-21T03:38:56;101680.91;;;11.63;92.09
73864;BME280;62200;52.062;5.292;2022-08-21T03:41:22;101673.19;;;11.59;91.90
73864;BME280;62200;52.062;5.292;2022-08-21T03:43:47;101669.75;;;11.57;92.16
73864;BME280;62200;52.062;5.292;2022-08-21T03:46:12;101676.34;;;11.50;92.14
73864;BME280;62200;52.062;5.292;2022-08-21T03:48:38;101682.00;;;11.44;92.60
73864;BME280;62200;52.062;5.292;2022-08-21T03:51:04;101681.66;;;11.34;93.32
73864;BME280;62200;52.062;5.292;2022-08-21T03:53:31;101678.41;;;11.29;93.39
73864;BME280;62200;52.062;5.292;2022-08-21T03:55:57;101677.13;;;11.36;92.70
73864;BME280;62200;52.062;5.292;2022-08-21T03:58:25;101681.31;;;11.40;92.80
73864;BME280;62200;52.062;5.292;2022-08-21T04:00:53;101679.44;;;11.42;92.49
73864;BME280;62200;52.062;5.292;2022-08-21T04:03:19;101679.44;;;11.42;92.47
73864;BME280;62200;52.062;5.292;2022-08-21T04:05:45;101675.25;;;11.38;92.90
73864;BME280;62200;52.062;5.292;2022-08-21T04:08:11;101678.06;;;11.35;92.61
73864;BME280;62200;52.062;5.292;2022-08-21T04:10:38;101678.75;;;11.39;92.50
73864;BME280;62200;52.062;5.292;2022-08-21T04:13:04;101684.16;;;11.37;92.66
73864;BME280;62200;52.062;5.292;2022-08-21T04:15:30;101680.38;;;11.41;92.72
73864;BME280;62200;52.062;5.292;2022-08-21T04:17:55;101680.81;;;11.34;92.46
73864;BME280;62200;52.062;5.292;2022-08-21T04:20:21;101689.56;;;11.36;92.05
73864;BME280;62200;52.062;5.292;2022-08-21T04:22:47;101683.63;;;11.31;92.51
73864;BME280;62200;52.062;5.292;2022-08-21T04:25:14;101680.56;;;11.23;92.45
73864;BME280;62200;52.062;5.292;2022-08-21T04:27:40;101681.28;;;11.25;92.14
73864;BME280;62200;52.062;5.292;2022-08-21T04:30:07;101680.59;;;11.21;92.59
73864;BME280;62200;52.062;5.292;2022-08-21T04:32:34;101680.16;;;11.13;92.35
73864;BME280;62200;52.062;5.292;2022-08-21T04:35:03;101684.72;;;11.11;93.13
73864;BME280;62200;52.062;5.292;2022-08-21T04:37:29;101686.75;;;11.06;93.06
73864;BME280;62200;52.062;5.292;2022-08-21T04:39:55;101690.03;;;11.11;93.48
73864;BME280;62200;52.062;5.292;2022-08-21T04:42:26;101693.81;;;11.07;93.09
73864;BME280;62200;52.062;5.292;2022-08-21T04:44:55;101687.53;;;11.08;93.09
73864;BME280;62200;52.062;5.292;2022-08-21T04:47:22;101679.25;;;11.14;93.02
73864;BME280;62200;52.062;5.292;2022-08-21T04:49:48;101678.38;;;11.14;92.96
73864;BME280;62200;52.062;5.292;2022-08-21T04:52:18;101681.72;;;11.17;93.29
73864;BME280;62200;52.062;5.292;2022-08-21T04:54:45;101689.47;;;11.22;92.82
73864;BME280;62200;52.062;5.292;2022-08-21T04:57:11;101685.94;;;11.21;93.05
73864;BME280;62200;52.062;5.292;2022-08-21T04:59:44;101692.81;;;11.25;92.91
73864;BME280;62200;52.062;5.292;2022-08-21T05:02:10;101707.06;;;11.24;93.16
73864;BME280;62200;52.062;5.292;2022-08-21T05:04:42;101701.91;;;11.21;93.54
73864;BME280;62200;52.062;5.292;2022-08-21T05:07:12;101699.94;;;11.25;93.48
73864;BME280;62200;52.062;5.292;2022-08-21T05:09:40;101706.91;;;11.27;93.26
73864;BME280;62200;52.062;5.292;2022-08-21T05:12:06;101706.56;;;11.33;92.87
73864;BME280;62200;52.062;5.292;2022-08-21T05:14:31;101708.47;;;11.31;93.10
73864;BME280;62200;52.062;5.292;2022-08-21T05:16:57;101711.72;;;11.36;93.22
73864;BME280;62200;52.062;5.292;2022-08-21T05:19:22;101715.19;;;11.38;93.08
73864;BME280;62200;52.062;5.292;2022-08-21T05:21:48;101706.41;;;11.36;93.48
73864;BME280;62200;52.062;5.292;2022-08-21T05:24:15;101717.56;;;11.43;93.36
73864;BME280;62200;52.062;5.292;2022-08-21T05:26:41;101716.53;;;11.45;93.15
73864;BME280;62200;52.062;5.292;2022-08-21T05:29:06;101708.47;;;11.47;93.06
73864;BME280;62200;52.062;5.292;2022-08-21T05:31:32;101714.56;;;11.49;93.30
73864;BME280;62200;52.062;5.292;2022-08-21T05:33:58;101722.22;;;11.55;93.06
73864;BME280;62200;52.062;5.292;2022-08-21T05:36:23;101712.44;;;11.55;93.18
73864;BME280;62200;52.062;5.292;2022-08-21T05:38:49;101723.84;;;11.57;93.31
73864;BME280;62200;52.062;5.292;2022-08-21T05:41:14;101716.72;;;11.58;93.83
73864;BME280;62200;52.062;5.292;2022-08-21T05:43:40;101721.03;;;11.60;93.79
73864;BME280;62200;52.062;5.292;2022-08-21T05:46:06;101716.47;;;11.62;94.13
73864;BME280;62200;52.062;5.292;2022-08-21T05:48:33;101716.16;;;11.68;93.90
73864;BME280;62200;52.062;5.292;2022-08-21T05:51:08;101719.25;;;11.77;94.95
73864;BME280;62200;52.062;5.292;2022-08-21T05:53:34;101708.34;;;11.97;96.70
73864;BME280;62200;52.062;5.292;2022-08-21T05:56:00;101703.13;;;12.09;96.64
73864;BME280;62200;52.062;5.292;2022-08-21T05:58:28;101707.31;;;12.29;97.29
73864;BME280;62200;52.062;5.292;2022-08-21T06:00:54;101711.16;;;12.39;96.90
73864;BME280;62200;52.062;5.292;2022-08-21T06:03:23;101709.75;;;12.47;96.63
73864;BME280;62200;52.062;5.292;2022-08-21T06:05:50;101716.56;;;12.67;96.90
73864;BME280;62200;52.062;5.292;2022-08-21T06:08:16;101710.69;;;12.76;97.18
73864;BME280;62200;52.062;5.292;2022-08-21T06:10:42;101703.34;;;12.93;96.90
73864;BME280;62200;52.062;5.292;2022-08-21T06:13:08;101704.94;;;13.12;96.83
73864;BME280;62200;52.062;5.292;2022-08-21T06:15:34;101705.97;;;13.23;95.65
73864;BME280;62200;52.062;5.292;2022-08-21T06:17:59;101705.56;;;13.43;95.93
73864;BME280;62200;52.062;5.292;2022-08-21T06:20:25;101700.41;;;13.54;95.28
73864;BME280;62200;52.062;5.292;2022-08-21T06:22:50;101694.88;;;13.57;94.71
73864;BME280;62200;52.062;5.292;2022-08-21T06:25:16;101705.34;;;13.60;95.39
73864;BME280;62200;52.062;5.292;2022-08-21T06:27:41;101709.91;;;13.72;95.02
73864;BME280;62200;52.062;5.292;2022-08-21T06:30:08;101704.50;;;13.74;95.05
73864;BME280;62200;52.062;5.292;2022-08-21T06:32:34;101713.31;;;13.88;95.03
73864;BME280;62200;52.062;5.292;2022-08-21T06:35:00;101707.25;;;13.99;94.70
73864;BME280;62200;52.062;5.292;2022-08-21T06:37:25;101707.81;;;14.04;94.69
73864;BME280;62200;52.062;5.292;2022-08-21T06:39:50;101702.41;;;14.18;94.45
73864;BME280;62200;52.062;5.292;2022-08-21T06:42:17;101705.19;;;14.31;94.00
73864;BME280;62200;52.062;5.292;2022-08-21T06:44:42;101703.69;;;14.39;93.62
73864;BME280;62200;52.062;5.292;2022-08-21T06:47:08;101704.03;;;14.47;94.06
73864;BME280;62200;52.062;5.292;2022-08-21T06:49:34;101708.00;;;14.54;93.29
73864;BME280;62200;52.062;5.292;2022-08-21T06:51:59;101709.72;;;14.68;92.91
73864;BME280;62200;52.062;5.292;2022-08-21T06:54:25;101710.69;;;14.79;92.82
73864;BME280;62200;52.062;5.292;2022-08-21T06:56:50;101709.44;;;14.85;92.30
73864;BME280;62200;52.062;5.292;2022-08-21T06:59:16;101714.25;;;14.92;92.26
73864;BME280;62200;52.062;5.292;2022-08-21T07:01:41;101710.09;;;15.01;92.23
73864;BME280;62200;52.062;5.292;2022-08-21T07:04:07;101709.22;;;15.13;91.82
73864;BME280;62200;52.062;5.292;2022-08-21T07:06:32;101713.38;;;15.17;91.80
73864;BME280;62200;52.062;5.292;2022-08-21T07:08:58;101705.56;;;15.27;92.41
73864;BME280;62200;52.062;5.292;2022-08-21T07:11:24;101701.50;;;15.34;91.08
73864;BME280;62200;52.062;5.292;2022-08-21T07:13:50;101703.75;;;15.40;91.24
73864;BME280;62200;52.062;5.292;2022-08-21T07:16:18;101697.38;;;15.53;91.63
73864;BME280;62200;52.062;5.292;2022-08-21T07:18:44;101697.56;;;15.75;90.33
73864;BME280;62200;52.062;5.292;2022-08-21T07:21:09;101697.28;;;15.91;90.05
73864;BME280;62200;52.062;5.292;2022-08-21T07:23:39;101697.47;;;16.00;89.94
73864;BME280;62200;52.062;5.292;2022-08-21T07:26:05;101697.09;;;16.05;90.15
73864;BME280;62200;52.062;5.292;2022-08-21T07:28:31;101702.16;;;16.09;89.88
73864;BME280;62200;52.062;5.292;2022-08-21T07:30:59;101699.06;;;16.26;88.89
73864;BME280;62200;52.062;5.292;2022-08-21T07:33:26;101699.44;;;16.33;88.70
73864;BME280;62200;52.062;5.292;2022-08-21T07:35:51;101702.00;;;16.34;89.56
73864;BME280;62200;52.062;5.292;2022-08-21T07:38:17;101700.69;;;16.40;89.84
73864;BME280;62200;52.062;5.292;2022-08-21T07:40:45;101709.41;;;16.55;88.65
73864;BME280;62200;52.062;5.292;2022-08-21T07:43:10;101708.97;;;16.61;87.90
73864;BME280;62200;52.062;5.292;2022-08-21T07:45:36;101713.84;;;16.67;87.56
73864;BME280;62200;52.062;5.292;2022-08-21T07:48:02;101702.66;;;16.73;87.77
73864;BME280;62200;52.062;5.292;2022-08-21T07:50:28;101708.53;;;16.78;87.92
73864;BME280;62200;52.062;5.292;2022-08-21T07:52:53;101706.22;;;16.84;88.06
73864;BME280;62200;52.062;5.292;2022-08-21T07:55:20;101706.25;;;16.95;87.74
73864;BME280;62200;52.062;5.292;2022-08-21T07:57:47;101710.53;;;17.09;86.98
73864;BME280;62200;52.062;5.292;2022-08-21T08:00:16;101714.19;;;17.19;87.64
73864;BME280;62200;52.062;5.292;2022-08-21T08:02:44;101719.59;;;17.30;86.61
73864;BME280;62200;52.062;5.292;2022-08-21T08:05:11;101708.09;;;17.39;87.05
73864;BME280;62200;52.062;5.292;2022-08-21T08:07:37;101706.16;;;17.63;85.37
73864;BME280;62200;52.062;5.292;2022-08-21T08:10:04;101695.78;;;17.70;85.35
73864;BME280;62200;52.062;5.292;2022-08-21T08:12:30;101699.84;;;17.96;85.05
73864;BME280;62200;52.062;5.292;2022-08-21T08:14:57;101688.19;;;18.06;84.27
73864;BME280;62200;52.062;5.292;2022-08-21T08:17:23;101685.97;;;18.11;86.80
73864;BME280;62200;52.062;5.292;2022-08-21T08:19:49;101690.75;;;18.39;84.02
73864;BME280;62200;52.062;5.292;2022-08-21T08:22:16;101691.53;;;18.62;82.86
73864;BME280;62200;52.062;5.292;2022-08-21T08:24:44;101689.50;;;18.75;82.39
73864;BME280;62200;52.062;5.292;2022-08-21T08:27:10;101690.03;;;18.90;82.22
73864;BME280;62200;52.062;5.292;2022-08-21T08:29:35;101687.81;;;19.04;83.32
73864;BME280;62200;52.062;5.292;2022-08-21T08:32:01;101693.28;;;19.44;80.56
73864;BME280;62200;52.062;5.292;2022-08-21T08:34:27;101679.44;;;19.67;80.99
73864;BME280;62200;52.062;5.292;2022-08-21T08:36:52;101682.31;;;19.85;77.61
73864;BME280;62200;52.062;5.292;2022-08-21T08:39:18;101684.50;;;20.10;77.18
73864;BME280;62200;52.062;5.292;2022-08-21T08:41:44;101691.91;;;20.18;79.19
73864;BME280;62200;52.062;5.292;2022-08-21T08:44:12;101689.94;;;20.20;76.61
73864;BME280;62200;52.062;5.292;2022-08-21T08:46:41;101692.78;;;20.37;76.18
73864;BME280;62200;52.062;5.292;2022-08-21T08:49:27;101693.75;;;20.55;77.68
73864;BME280;62200;52.062;5.292;2022-08-21T08:52:03;101689.88;;;21.06;74.88
73864;BME280;62200;52.062;5.292;2022-08-21T08:54:39;101683.59;;;21.15;72.25
73864;BME280;62200;52.062;5.292;2022-08-21T08:57:14;101683.59;;;21.15;71.42
73864;BME280;62200;52.062;5.292;2022-08-21T08:59:44;101688.69;;;21.18;71.87
73864;BME280;62200;52.062;5.292;2022-08-21T09:02:12;101682.22;;;21.01;72.25
73864;BME280;62200;52.062;5.292;2022-08-21T09:04:38;101668.66;;;21.38;72.16
73864;BME280;62200;52.062;5.292;2022-08-21T09:10:22;101672.41;;;21.91;69.99
73864;BME280;62200;52.062;5.292;2022-08-21T09:21:18;101679.66;;;22.78;66.33
73864;BME280;62200;52.062;5.292;2022-08-21T09:26:27;101681.88;;;22.83;65.85
73864;BME280;62200;52.062;5.292;2022-08-21T09:28:58;101672.72;;;22.58;66.10
73864;BME280;62200;52.062;5.292;2022-08-21T09:31:35;101671.91;;;22.48;65.89
73864;BME280;62200;52.062;5.292;2022-08-21T09:34:07;101670.88;;;22.59;66.14
73864;BME280;62200;52.062;5.292;2022-08-21T09:36:48;101676.13;;;22.60;65.20
73864;BME280;62200;52.062;5.292;2022-08-21T09:39:25;101677.41;;;22.74;65.47
73864;BME280;62200;52.062;5.292;2022-08-21T09:42:02;101685.16;;;22.51;66.33
73864;BME280;62200;52.062;5.292;2022-08-21T09:44:34;101679.84;;;22.24;67.64
73864;BME280;62200;52.062;5.292;2022-08-21T09:47:04;101684.31;;;21.98;66.99
73864;BME280;62200;52.062;5.292;2022-08-21T09:49:35;101682.53;;;22.07;68.90
73864;BME280;62200;52.062;5.292;2022-08-21T09:52:01;101683.06;;;22.10;68.31
73864;BME280;62200;52.062;5.292;2022-08-21T09:54:34;101678.41;;;21.85;66.71
73864;BME280;62200;52.062;5.292;2022-08-21T09:57:23;101684.84;;;21.84;67.78
73864;BME280;62200;52.062;5.292;2022-08-21T10:02:47;101672.41;;;22.61;64.15
73864;BME280;62200;52.062;5.292;2022-08-21T10:05:26;101666.47;;;22.83;63.41
73864;BME280;62200;52.062;5.292;2022-08-21T10:07:52;101674.13;;;23.13;63.73
73864;BME280;62200;52.062;5.292;2022-08-21T10:10:23;101666.03;;;23.47;62.50
73864;BME280;62200;52.062;5.292;2022-08-21T10:13:05;101671.03;;;23.76;61.33
73864;BME280;62200;52.062;5.292;2022-08-21T10:16:01;101668.41;;;24.00;61.37
73864;BME280;62200;52.062;5.292;2022-08-21T10:18:46;101661.50;;;23.72;60.08
73864;BME280;62200;52.062;5.292;2022-08-21T10:21:22;101658.13;;;23.70;59.10
73864;BME280;62200;52.062;5.292;2022-08-21T10:32:22;101659.38;;;23.91;56.52
73864;BME280;62200;52.062;5.292;2022-08-21T10:35:02;101660.19;;;23.84;58.43
73864;BME280;62200;52.062;5.292;2022-08-21T10:37:43;101644.59;;;23.86;58.56
73864;BME280;62200;52.062;5.292;2022-08-21T10:40:29;101657.34;;;23.85;57.51
73864;BME280;62200;52.062;5.292;2022-08-21T10:48:08;101639.25;;;24.18;58.37
73864;BME280;62200;52.062;5.292;2022-08-21T10:55:36;101632.44;;;24.38;53.53
73864;BME280;62200;52.062;5.292;2022-08-21T10:58:09;101634.75;;;23.93;55.77
73864;BME280;62200;52.062;5.292;2022-08-21T11:00:55;101636.09;;;23.81;57.57
73864;BME280;62200;52.062;5.292;2022-08-21T11:03:29;101625.59;;;23.94;56.86
73864;BME280;62200;52.062;5.292;2022-08-21T11:06:14;101628.97;;;23.80;55.56
73864;BME280;62200;52.062;5.292;2022-08-21T11:08:43;101635.44;;;23.95;56.54
73864;BME280;62200;52.062;5.292;2022-08-21T11:11:26;101627.66;;;24.08;57.20
73864;BME280;62200;52.062;5.292;2022-08-21T11:14:07;101635.16;;;24.06;57.45
73864;BME280;62200;52.062;5.292;2022-08-21T11:16:49;101630.81;;;23.71;58.24
73864;BME280;62200;52.062;5.292;2022-08-21T11:19:28;101622.31;;;23.74;55.45
73864;BME280;62200;52.062;5.292;2022-08-21T11:22:13;101626.25;;;23.88;54.07
73864;BME280;62200;52.062;5.292;2022-08-21T11:25:02;101629.66;;;23.98;54.91
73864;BME280;62200;52.062;5.292;2022-08-21T11:27:52;101624.59;;;24.03;54.86
73864;BME280;62200;52.062;5.292;2022-08-21T11:30:20;101629.84;;;23.96;53.70
73864;BME280;62200;52.062;5.292;2022-08-21T11:33:12;101627.94;;;23.81;56.55
73864;BME280;62200;52.062;5.292;2022-08-21T11:35:58;101626.56;;;23.69;55.37
73864;BME280;62200;52.062;5.292;2022-08-21T11:38:40;101628.09;;;23.79;55.98
73864;BME280;62200;52.062;5.292;2022-08-21T11:41:19;101628.34;;;24.02;54.42
73864;BME280;62200;52.062;5.292;2022-08-21T11:54:39;101642.91;;;23.85;54.20
73864;BME280;62200;52.062;5.292;2022-08-21T11:57:14;101646.59;;;23.84;56.69
73864;BME280;62200;52.062;5.292;2022-08-21T12:02:16;101650.09;;;23.52;55.24
73864;BME280;62200;52.062;5.292;2022-08-21T12:05:00;101646.16;;;23.47;54.63
73864;BME280;62200;52.062;5.292;2022-08-21T12:07:34;101648.31;;;23.35;56.21
73864;BME280;62200;52.062;5.292;2022-08-21T12:10:01;101642.28;;;23.24;56.36
73864;BME280;62200;52.062;5.292;2022-08-21T12:12:30;101655.88;;;22.98;57.54
73864;BME280;62200;52.062;5.292;2022-08-21T12:15:26;101651.91;;;22.84;59.33
73864;BME280;62200;52.062;5.292;2022-08-21T12:22:54;101656.78;;;22.55;60.31
73864;BME280;62200;52.062;5.292;2022-08-21T12:25:21;101650.25;;;22.48;60.86
73864;BME280;62200;52.062;5.292;2022-08-21T12:27:51;101651.72;;;22.60;60.19
73864;BME280;62200;52.062;5.292;2022-08-21T12:30:32;101651.06;;;22.84;60.36
73864;BME280;62200;52.062;5.292;2022-08-21T12:33:18;101640.50;;;23.06;59.55
73864;BME280;62200;52.062;5.292;2022-08-21T12:35:46;101638.75;;;23.23;58.36
73864;BME280;62200;52.062;5.292;2022-08-21T12:38:18;101642.75;;;23.45;56.31
73864;BME280;62200;52.062;5.292;2022-08-21T12:40:49;101641.09;;;23.52;56.14
73864;BME280;62200;52.062;5.292;2022-08-21T12:43:29;101640.75;;;23.55;57.29
73864;BME280;62200;52.062;5.292;2022-08-21T12:45:55;101645.72;;;23.59;58.17
73864;BME280;62200;52.062;5.292;2022-08-21T12:48:47;101649.94;;;23.62;54.82
73864;BME280;62200;52.062;5.292;2022-08-21T12:51:22;101646.19;;;23.55;54.84
73864;BME280;62200;52.062;5.292;2022-08-21T12:53:53;101642.81;;;23.53;55.07
73864;BME280;62200;52.062;5.292;2022-08-21T12:56:22;101649.63;;;23.65;52.04
73864;BME280;62200;52.062;5.292;2022-08-21T12:59:01;101647.78;;;23.73;52.20
73864;BME280;62200;52.062;5.292;2022-08-21T13:01:35;101643.03;;;23.75;52.18
73864;BME280;62200;52.062;5.292;2022-08-21T13:04:04;101656.56;;;23.59;50.90
73864;BME280;62200;52.062;5.292;2022-08-21T13:06:36;101656.75;;;23.66;51.63
73864;BME280;62200;52.062;5.292;2022-08-21T13:09:08;101657.25;;;23.61;50.90
73864;BME280;62200;52.062;5.292;2022-08-21T13:11:35;101659.94;;;23.53;53.41
73864;BME280;62200;52.062;5.292;2022-08-21T13:14:03;101661.69;;;23.29;54.39
73864;BME280;62200;52.062;5.292;2022-08-21T13:16:29;101661.56;;;23.13;55.08
73864;BME280;62200;52.062;5.292;2022-08-21T13:19:06;101655.09;;;23.05;54.11
73864;BME280;62200;52.062;5.292;2022-08-21T13:21:40;101657.44;;;23.00;56.48
73864;BME280;62200;52.062;5.292;2022-08-21T13:26:35;101668.06;;;22.94;55.38
73864;BME280;62200;52.062;5.292;2022-08-21T13:29:07;101659.56;;;22.89;55.08
73864;BME280;62200;52.062;5.292;2022-08-21T13:31:36;101663.47;;;22.94;56.46
73864;BME280;62200;52.062;5.292;2022-08-21T13:34:03;101653.41;;;23.04;55.24
73864;BME280;62200;52.062;5.292;2022-08-21T13:36:32;101650.41;;;23.24;55.38
73864;BME280;62200;52.062;5.292;2022-08-21T13:38:59;101646.13;;;23.39;54.91
73864;BME280;62200;52.062;5.292;2022-08-21T13:41:29;101648.06;;;23.54;55.35
73864;BME280;62200;52.062;5.292;2022-08-21T13:43:59;101654.38;;;23.63;56.63
73864;BME280;62200;52.062;5.292;2022-08-21T13:46:29;101654.72;;;23.68;55.10
73864;BME280;62200;52.062;5.292;2022-08-21T13:48:55;101652.31;;;23.57;53.49
73864;BME280;62200;52.062;5.292;2022-08-21T13:51:22;101655.72;;;23.59;55.42
73864;BME280;62200;52.062;5.292;2022-08-21T13:53:49;101645.88;;;23.58;53.60
73864;BME280;62200;52.062;5.292;2022-08-21T13:56:33;101653.38;;;23.72;54.59